Wes Sonja — V2GN5 — position and weather

sailwx.info

Track history (hours):
 
Tides and Currents Weather Stations Pressure Air Temp Water Temp Dewpoint Dewpoint Depression Visibility Wind Speed Wind Dir Waves Ship Positions

Wes Sonja

Last reported at 2018-Jan-18 05:56 UTC. Time now 2018-Jan-18 06:09 UTC.
Position N 53°33' E 000°05'.

Length 109 m; draft 4 m.

Type: Cargo ship. MMSI: 304013000.

Date/timePositionNaut miles runAvg speedWind from/ knotsBaromVisibWave heightAir tempDewpointWater temp
2018-Jan-18 05:56N 53°33' E 000°05'0 0.1
2018-Jan-18 05:26N 53°33' E 000°05'0 0.1
2018-Jan-18 04:56N 53°33' E 000°05'0 0.2
2018-Jan-18 04:20N 53°33' E 000°05'0 0.1
2018-Jan-18 03:56N 53°33' E 000°04'0 0.1
2018-Jan-18 03:26N 53°33' E 000°04'0 0.0
2018-Jan-18 02:56N 53°33' E 000°04'0 0.0
2018-Jan-18 02:26N 53°33' E 000°04'0 0.0
2018-Jan-18 01:56N 53°33' E 000°04'0 0.0
2018-Jan-18 01:26N 53°33' E 000°04'0 0.0
2018-Jan-18 00:50N 53°33' E 000°04'0 0.2
2018-Jan-17 23:56N 53°33' E 000°05'  
2018-Jan-12 14:59N 53°38' W 000°12'0 0.0
2018-Jan-12 14:26N 53°38' W 000°12'0 0.0
2018-Jan-12 13:59N 53°38' W 000°12'0 0.0
2018-Jan-12 13:29N 53°38' W 000°12'0 0.0
2018-Jan-12 12:44N 53°38' W 000°12'0 0.0
2018-Jan-12 12:23N 53°38' W 000°12'0 0.0
2018-Jan-12 11:50N 53°38' W 000°12'0 0.0
2018-Jan-12 11:26N 53°38' W 000°12'0 0.0
2018-Jan-12 10:56N 53°38' W 000°12'0 0.0
2018-Jan-12 10:27N 53°38' W 000°12'0 0.7
2018-Jan-12 10:00N 53°38' W 000°11'0 0.0
2018-Jan-12 09:30N 53°38' W 000°11'1 1.2
2018-Jan-12 08:59N 53°38' W 000°10'3 5.8
2018-Jan-12 08:30N 53°37' W 000°06'4 8.0
2018-Jan-12 08:01N 53°35' W 000°00'4 7.8
2018-Jan-12 07:30N 53°34' E 000°06'40 6.5
2018-Jan-12 01:24N 53°16' E 001°06'4 8.8
2018-Jan-12 00:59N 53°14' E 001°11'4 9.1
2018-Jan-12 00:30N 53°11' E 001°16'5 9.5
2018-Jan-12 00:00N 53°07' E 001°21'510.1
2018-Jan-11 23:30N 53°05' E 001°29'510.4
2018-Jan-11 23:01N 53°02' E 001°36'510.6
2018-Jan-11 22:30N 53°00' E 001°44'510.6
2018-Jan-11 22:00N 52°58' E 001°52'510.6
2018-Jan-11 21:31N 52°56' E 001°60'510.1
2018-Jan-11 21:00N 52°52' E 002°06'5 9.9
2018-Jan-11 20:28N 52°47' E 002°10'60 8.3
2018-Jan-11 13:17N 51°48' E 002°09'3 9.7
2018-Jan-11 13:00N 51°45' E 002°07'5 9.8
2018-Jan-11 12:30N 51°41' E 002°03'5 9.9
2018-Jan-11 12:00N 51°36' E 002°00'510.0
2018-Jan-11 11:29N 51°32' E 001°57'4 8.0
2018-Jan-11 11:01N 51°28' E 001°58'5 9.8
2018-Jan-11 10:30N 51°24' E 002°04'5 9.5
2018-Jan-11 10:01N 51°20' E 002°08'510.6
2018-Jan-11 09:30N 51°15' E 002°05'510.1
2018-Jan-11 09:00N 51°12' E 001°59'510.5
2018-Jan-11 08:30N 51°10' E 001°51'510.4
2018-Jan-11 08:00N 51°06' E 001°45'510.8
2018-Jan-11 07:30N 51°02' E 001°40'611.1
2018-Jan-11 07:00N 50°58' E 001°34'510.6
2018-Jan-11 06:30N 50°54' E 001°29'510.3
2018-Jan-11 06:00N 50°49' E 001°25'56 8.7
2018-Jan-10 23:32N 50°21' E 000°08'0 8.6
2018-Jan-10 23:29N 50°21' E 000°08'4 8.5
2018-Jan-10 23:00N 50°19' E 000°01'4 8.4
2018-Jan-10 22:30N 50°18' W 000°05'6 8.4
2018-Jan-10 21:45N 50°17' W 000°14'3 8.2
2018-Jan-10 21:25N 50°16' W 000°18'8410.0
2018-Jan-10 13:04N 49°53' W 002°24'2 9.8
2018-Jan-10 12:52N 49°53' W 002°27'20 9.8
2018-Jan-10 10:52N 49°47' W 002°56'6 9.2
2018-Jan-10 10:10N 49°44' W 003°05'  
Track history (hours):
 
Tides and Currents Weather Stations Pressure Air Temp Water Temp Dewpoint Dewpoint Depression Visibility Wind Speed Wind Dir Waves Ship Positions

Wes Sonja

Last reported at 2018-Jan-18 05:56 UTC. Time now 2018-Jan-18 06:09 UTC.
Position N 53°33' E 000°05'.

Length 109 m; draft 4 m.

Type: Cargo ship. MMSI: 304013000.

Date/timePositionNaut miles runAvg speedWind from/ knotsBaromVisibWave heightAir tempDewpointWater temp
2018-Jan-18 05:56N 53°33' E 000°05'0 0.1
2018-Jan-18 05:26N 53°33' E 000°05'0 0.1
2018-Jan-18 04:56N 53°33' E 000°05'0 0.2
2018-Jan-18 04:20N 53°33' E 000°05'0 0.1
2018-Jan-18 03:56N 53°33' E 000°04'0 0.1
2018-Jan-18 03:26N 53°33' E 000°04'0 0.0
2018-Jan-18 02:56N 53°33' E 000°04'0 0.0
2018-Jan-18 02:26N 53°33' E 000°04'0 0.0
2018-Jan-18 01:56N 53°33' E 000°04'0 0.0
2018-Jan-18 01:26N 53°33' E 000°04'0 0.0
2018-Jan-18 00:50N 53°33' E 000°04'0 0.2
2018-Jan-17 23:56N 53°33' E 000°05'  
2018-Jan-12 14:59N 53°38' W 000°12'0 0.0
2018-Jan-12 14:26N 53°38' W 000°12'0 0.0
2018-Jan-12 13:59N 53°38' W 000°12'0 0.0
2018-Jan-12 13:29N 53°38' W 000°12'0 0.0
2018-Jan-12 12:44N 53°38' W 000°12'0 0.0
2018-Jan-12 12:23N 53°38' W 000°12'0 0.0
2018-Jan-12 11:50N 53°38' W 000°12'0 0.0
2018-Jan-12 11:26N 53°38' W 000°12'0 0.0
2018-Jan-12 10:56N 53°38' W 000°12'0 0.0
2018-Jan-12 10:27N 53°38' W 000°12'0 0.7
2018-Jan-12 10:00N 53°38' W 000°11'0 0.0
2018-Jan-12 09:30N 53°38' W 000°11'1 1.2
2018-Jan-12 08:59N 53°38' W 000°10'3 5.8
2018-Jan-12 08:30N 53°37' W 000°06'4 8.0
2018-Jan-12 08:01N 53°35' W 000°00'4 7.8
2018-Jan-12 07:30N 53°34' E 000°06'40 6.5
2018-Jan-12 01:24N 53°16' E 001°06'4 8.8
2018-Jan-12 00:59N 53°14' E 001°11'4 9.1
2018-Jan-12 00:30N 53°11' E 001°16'5 9.5
2018-Jan-12 00:00N 53°07' E 001°21'510.1
2018-Jan-11 23:30N 53°05' E 001°29'510.4
2018-Jan-11 23:01N 53°02' E 001°36'510.6
2018-Jan-11 22:30N 53°00' E 001°44'510.6
2018-Jan-11 22:00N 52°58' E 001°52'510.6
2018-Jan-11 21:31N 52°56' E 001°60'510.1
2018-Jan-11 21:00N 52°52' E 002°06'5 9.9
2018-Jan-11 20:28N 52°47' E 002°10'60 8.3
2018-Jan-11 13:17N 51°48' E 002°09'3 9.7
2018-Jan-11 13:00N 51°45' E 002°07'5 9.8
2018-Jan-11 12:30N 51°41' E 002°03'5 9.9
2018-Jan-11 12:00N 51°36' E 002°00'510.0
2018-Jan-11 11:29N 51°32' E 001°57'4 8.0
2018-Jan-11 11:01N 51°28' E 001°58'5 9.8
2018-Jan-11 10:30N 51°24' E 002°04'5 9.5
2018-Jan-11 10:01N 51°20' E 002°08'510.6
2018-Jan-11 09:30N 51°15' E 002°05'510.1
2018-Jan-11 09:00N 51°12' E 001°59'510.5
2018-Jan-11 08:30N 51°10' E 001°51'510.4
2018-Jan-11 08:00N 51°06' E 001°45'510.8
2018-Jan-11 07:30N 51°02' E 001°40'611.1
2018-Jan-11 07:00N 50°58' E 001°34'510.6
2018-Jan-11 06:30N 50°54' E 001°29'510.3
2018-Jan-11 06:00N 50°49' E 001°25'56 8.7
2018-Jan-10 23:32N 50°21' E 000°08'0 8.6
2018-Jan-10 23:29N 50°21' E 000°08'4 8.5
2018-Jan-10 23:00N 50°19' E 000°01'4 8.4
2018-Jan-10 22:30N 50°18' W 000°05'6 8.4
2018-Jan-10 21:45N 50°17' W 000°14'3 8.2
2018-Jan-10 21:25N 50°16' W 000°18'8410.0
2018-Jan-10 13:04N 49°53' W 002°24'2 9.8
2018-Jan-10 12:52N 49°53' W 002°27'20 9.8
2018-Jan-10 10:52N 49°47' W 002°56'6 9.2
2018-Jan-10 10:10N 49°44' W 003°05'  

Dump ship's entire track history